Time,TemperatureF,DewpointF,PressureIn,WindDirection,WindDirectionDegrees,WindSpeedMPH,WindSpeedGustMPH,Humidity,HourlyPrecipIn,Conditions,Clouds,dailyrainin,SolarRadiationWatts/m^2,SoftwareType,DateUTC
2013-11-08 00:22:00,25.0,17.0,-100.00,South,177,3.0,5.0,72,0.00,,,0.00,0.000000,,2013-11-08 09:22:00,
2013-11-08 00:33:00,25.0,17.0,-100.00,South,177,3.0,5.0,72,0.00,,,0.00,0.000000,,2013-11-08 09:33:00,
2013-11-08 00:43:00,25.0,17.0,-100.00,South,177,3.0,5.0,72,0.00,,,0.00,0.000000,,2013-11-08 09:43:00,
2013-11-08 00:53:00,25.0,17.0,-100.00,South,177,3.0,5.0,72,0.00,,,0.00,0.000000,,2013-11-08 09:53:00,
2013-11-08 01:23:00,24.0,18.0,-100.00,ESE,102,3.0,4.0,76,0.00,,,0.00,0.000000,,2013-11-08 10:23:00,
2013-11-08 01:33:00,24.0,18.0,-100.00,ESE,102,3.0,4.0,76,0.00,,,0.00,0.000000,,2013-11-08 10:33:00,
2013-11-08 01:42:00,24.0,18.0,-100.00,ESE,102,3.0,4.0,76,0.00,,,0.00,0.000000,,2013-11-08 10:42:00,
2013-11-08 01:53:00,24.0,18.0,-100.00,ESE,102,3.0,4.0,76,0.00,,,0.00,0.000000,,2013-11-08 10:53:00,
2013-11-08 02:22:00,24.0,15.0,-100.00,SSE,162,2.0,4.0,68,0.00,,,0.00,0.000000,,2013-11-08 11:22:00,
2013-11-08 02:33:00,24.0,15.0,-100.00,SSE,162,2.0,4.0,68,0.00,,,0.00,0.000000,,2013-11-08 11:33:00,
2013-11-08 02:42:00,24.0,15.0,-100.00,SSE,162,2.0,4.0,68,0.00,,,0.00,0.000000,,2013-11-08 11:42:00,
2013-11-08 02:52:00,24.0,15.0,-100.00,SSE,162,2.0,4.0,68,0.00,,,0.00,0.000000,,2013-11-08 11:52:00,
2013-11-08 03:21:00,22.0,15.0,-100.00,South,172,2.0,7.0,73,0.00,,,0.00,0.000000,,2013-11-08 12:21:00,
2013-11-08 03:32:00,22.0,15.0,-100.00,South,172,2.0,7.0,73,0.00,,,0.00,0.000000,,2013-11-08 12:32:00,
2013-11-08 03:42:00,22.0,15.0,-100.00,South,172,2.0,7.0,73,0.00,,,0.00,0.000000,,2013-11-08 12:42:00,
2013-11-08 03:52:00,22.0,15.0,-100.00,South,172,2.0,7.0,73,0.00,,,0.00,0.000000,,2013-11-08 12:52:00,
2013-11-08 04:21:00,21.0,14.0,-100.00,SE,133,2.0,5.0,73,0.00,,,0.00,0.000000,,2013-11-08 13:21:00,
2013-11-08 04:32:00,21.0,14.0,-100.00,SE,133,2.0,5.0,73,0.00,,,0.00,0.000000,,2013-11-08 13:32:00,
2013-11-08 04:42:00,21.0,14.0,-100.00,SE,133,2.0,5.0,73,0.00,,,0.00,0.000000,,2013-11-08 13:42:00,
2013-11-08 04:52:00,21.0,14.0,-100.00,SE,133,2.0,5.0,73,0.00,,,0.00,0.000000,,2013-11-08 13:52:00,
2013-11-08 05:21:00,24.0,11.0,-100.00,NNE,26,2.0,4.0,57,0.00,,,0.00,0.000000,,2013-11-08 14:21:00,
2013-11-08 05:32:00,24.0,11.0,-100.00,NNE,26,2.0,4.0,57,0.00,,,0.00,0.000000,,2013-11-08 14:32:00,
2013-11-08 05:42:00,24.0,11.0,-100.00,NNE,26,2.0,4.0,57,0.00,,,0.00,0.000000,,2013-11-08 14:42:00,
2013-11-08 05:52:00,24.0,11.0,-100.00,NNE,26,2.0,4.0,57,0.00,,,0.00,0.000000,,2013-11-08 14:52:00,
2013-11-08 06:22:00,23.0,10.0,-100.00,NNW,336,1.0,4.0,56,0.00,,,0.00,0.000000,,2013-11-08 15:22:00,
2013-11-08 06:33:00,23.0,10.0,-100.00,NNW,336,1.0,4.0,56,0.00,,,0.00,0.000000,,2013-11-08 15:33:00,
2013-11-08 06:43:00,23.0,10.0,-100.00,NNW,336,1.0,4.0,56,0.00,,,0.00,0.000000,,2013-11-08 15:43:00,
2013-11-08 06:53:00,23.0,10.0,-100.00,NNW,336,1.0,4.0,56,0.00,,,0.00,0.000000,,2013-11-08 15:53:00,
2013-11-08 07:23:00,21.0,10.0,-100.00,West,259,2.0,4.0,62,0.00,,,0.00,0.000000,,2013-11-08 16:23:00,
2013-11-08 07:33:00,21.0,10.0,-100.00,West,259,2.0,4.0,62,0.00,,,0.00,0.000000,,2013-11-08 16:33:00,
2013-11-08 07:42:00,21.0,10.0,-100.00,West,259,2.0,4.0,62,0.00,,,0.00,0.000000,,2013-11-08 16:42:00,
2013-11-08 07:53:00,21.0,10.0,-100.00,West,259,2.0,4.0,62,0.00,,,0.00,0.000000,,2013-11-08 16:53:00,
2013-11-08 08:22:00,22.0,11.0,-100.00,WNW,287,3.0,5.0,61,0.00,,,0.00,0.000000,,2013-11-08 17:22:00,
2013-11-08 08:33:00,22.0,11.0,-100.00,WNW,287,3.0,5.0,61,0.00,,,0.00,0.000000,,2013-11-08 17:33:00,
2013-11-08 08:43:00,22.0,11.0,-100.00,WNW,287,3.0,5.0,61,0.00,,,0.00,0.000000,,2013-11-08 17:43:00,
2013-11-08 08:52:00,22.0,11.0,-100.00,WNW,287,3.0,5.0,61,0.00,,,0.00,0.000000,,2013-11-08 17:52:00,
2013-11-08 09:22:00,19.0,6.0,-100.00,NE,51,2.0,5.0,55,0.00,,,0.00,2.000000,,2013-11-08 18:22:00,
2013-11-08 09:33:00,19.0,6.0,-100.00,NE,51,2.0,5.0,55,0.00,,,0.00,2.000000,,2013-11-08 18:33:00,
2013-11-08 09:42:00,19.0,6.0,-100.00,NE,51,2.0,5.0,55,0.00,,,0.00,2.000000,,2013-11-08 18:42:00,
2013-11-08 09:52:00,19.0,6.0,-100.00,NE,51,2.0,5.0,55,0.00,,,0.00,2.000000,,2013-11-08 18:52:00,
2013-11-08 10:21:00,20.0,6.0,-100.00,NW,304,2.0,6.0,53,0.00,,,0.00,14.000000,,2013-11-08 19:21:00,
2013-11-08 10:32:00,20.0,6.0,-100.00,NW,304,2.0,6.0,53,0.00,,,0.00,14.000000,,2013-11-08 19:32:00,
2013-11-08 10:42:00,20.0,6.0,-100.00,NW,304,2.0,6.0,53,0.00,,,0.00,14.000000,,2013-11-08 19:42:00,
2013-11-08 10:52:00,20.0,6.0,-100.00,NW,304,2.0,6.0,53,0.00,,,0.00,14.000000,,2013-11-08 19:52:00,
2013-11-08 11:22:00,24.0,9.0,-100.00,SSE,168,2.0,4.0,52,0.00,,,0.00,51.000000,,2013-11-08 20:22:00,
2013-11-08 11:32:00,24.0,9.0,-100.00,SSE,168,2.0,4.0,52,0.00,,,0.00,51.000000,,2013-11-08 20:32:00,
2013-11-08 11:42:00,24.0,9.0,-100.00,SSE,168,2.0,4.0,52,0.00,,,0.00,51.000000,,2013-11-08 20:42:00,
2013-11-08 12:22:00,26.0,8.0,-100.00,South,185,6.0,9.0,46,0.00,,,0.00,172.000000,,2013-11-08 21:22:00,
2013-11-08 12:33:00,26.0,8.0,-100.00,South,185,6.0,9.0,46,0.00,,,0.00,172.000000,,2013-11-08 21:33:00,
2013-11-08 12:44:00,26.0,8.0,-100.00,South,185,6.0,9.0,46,0.00,,,0.00,172.000000,,2013-11-08 21:44:00,
2013-11-08 12:54:00,26.0,8.0,-100.00,South,185,6.0,9.0,46,0.00,,,0.00,172.000000,,2013-11-08 21:54:00,
2013-11-08 13:23:00,29.0,10.0,-100.00,South,181,4.0,11.0,44,0.00,,,0.00,172.000000,,2013-11-08 22:23:00,
2013-11-08 13:32:00,29.0,10.0,-100.00,South,181,4.0,11.0,44,0.00,,,0.00,172.000000,,2013-11-08 22:32:00,
2013-11-08 13:43:00,29.0,10.0,-100.00,South,181,4.0,11.0,44,0.00,,,0.00,172.000000,,2013-11-08 22:43:00,
2013-11-08 13:53:00,29.0,10.0,-100.00,South,181,4.0,11.0,44,0.00,,,0.00,172.000000,,2013-11-08 22:53:00,
2013-11-08 14:22:00,30.0,9.0,-100.00,SW,234,4.0,6.0,41,0.00,,,0.00,191.000000,,2013-11-08 23:22:00,
2013-11-08 14:34:00,30.0,9.0,-100.00,SW,234,4.0,6.0,41,0.00,,,0.00,191.000000,,2013-11-08 23:34:00,
2013-11-08 14:42:00,30.0,9.0,-100.00,SW,234,4.0,6.0,41,0.00,,,0.00,191.000000,,2013-11-08 23:42:00,
2013-11-08 14:53:00,30.0,9.0,-100.00,SW,234,4.0,6.0,41,0.00,,,0.00,191.000000,,2013-11-08 23:53:00,
2013-11-08 15:21:00,31.0,11.0,-100.00,NW,309,2.0,5.0,42,0.00,,,0.00,155.000000,,2013-11-09 00:21:00,
2013-11-08 15:32:00,31.0,11.0,-100.00,NW,309,2.0,5.0,42,0.00,,,0.00,155.000000,,2013-11-09 00:32:00,
2013-11-08 15:42:00,31.0,11.0,-100.00,NW,309,2.0,5.0,42,0.00,,,0.00,155.000000,,2013-11-09 00:42:00,
2013-11-08 15:52:00,31.0,11.0,-100.00,NW,309,2.0,5.0,42,0.00,,,0.00,155.000000,,2013-11-09 00:52:00,
2013-11-08 16:22:00,28.0,10.0,-100.00,WNW,288,2.0,6.0,47,0.00,,,0.00,72.000000,,2013-11-09 01:22:00,
2013-11-08 16:32:00,28.0,10.0,-100.00,WNW,288,2.0,6.0,47,0.00,,,0.00,72.000000,,2013-11-09 01:32:00,
2013-11-08 16:42:00,28.0,10.0,-100.00,WNW,288,2.0,6.0,47,0.00,,,0.00,72.000000,,2013-11-09 01:42:00,
2013-11-08 16:52:00,28.0,10.0,-100.00,WNW,288,2.0,6.0,47,0.00,,,0.00,72.000000,,2013-11-09 01:52:00,
2013-11-08 17:22:00,22.0,9.0,-100.00,SE,142,2.0,4.0,56,0.00,,,0.00,11.000000,,2013-11-09 02:22:00,
2013-11-08 17:32:00,22.0,9.0,-100.00,SE,142,2.0,4.0,56,0.00,,,0.00,11.000000,,2013-11-09 02:32:00,
2013-11-08 17:42:00,22.0,9.0,-100.00,SE,142,2.0,4.0,56,0.00,,,0.00,11.000000,,2013-11-09 02:42:00,
2013-11-08 17:52:00,22.0,9.0,-100.00,SE,142,2.0,4.0,56,0.00,,,0.00,11.000000,,2013-11-09 02:52:00,
2013-11-08 18:22:00,22.0,9.0,-100.00,South,183,1.0,4.0,56,0.00,,,0.00,0.000000,,2013-11-09 03:22:00,
2013-11-08 18:34:00,22.0,9.0,-100.00,South,183,1.0,4.0,56,0.00,,,0.00,0.000000,,2013-11-09 03:34:00,
2013-11-08 18:44:00,22.0,9.0,-100.00,South,183,1.0,4.0,56,0.00,,,0.00,0.000000,,2013-11-09 03:44:00,
2013-11-08 18:54:00,22.0,9.0,-100.00,South,183,1.0,4.0,56,0.00,,,0.00,0.000000,,2013-11-09 03:54:00,
2013-11-08 19:23:00,22.0,7.0,-100.00,West,263,2.0,3.0,52,0.00,,,0.00,0.000000,,2013-11-09 04:23:00,
2013-11-08 19:34:00,22.0,7.0,-100.00,West,263,2.0,3.0,52,0.00,,,0.00,0.000000,,2013-11-09 04:34:00,
2013-11-08 19:42:00,22.0,7.0,-100.00,West,263,2.0,3.0,52,0.00,,,0.00,0.000000,,2013-11-09 04:42:00,
2013-11-08 19:53:00,22.0,7.0,-100.00,West,263,2.0,3.0,52,0.00,,,0.00,0.000000,,2013-11-09 04:53:00,
2013-11-08 20:22:00,22.0,10.0,-100.00,WNW,288,1.0,3.0,58,0.00,,,0.00,0.000000,,2013-11-09 05:22:00,
2013-11-08 20:34:00,22.0,10.0,-100.00,WNW,288,1.0,3.0,58,0.00,,,0.00,0.000000,,2013-11-09 05:34:00,
2013-11-08 20:43:00,22.0,10.0,-100.00,WNW,288,1.0,3.0,58,0.00,,,0.00,0.000000,,2013-11-09 05:43:00,
2013-11-08 20:53:00,22.0,10.0,-100.00,WNW,288,1.0,3.0,58,0.00,,,0.00,0.000000,,2013-11-09 05:53:00,
2013-11-08 21:22:00,23.0,14.0,-100.00,SE,131,3.0,4.0,69,0.00,,,0.00,0.000000,,2013-11-09 06:22:00,
2013-11-08 21:33:00,23.0,14.0,-100.00,SE,131,3.0,4.0,69,0.00,,,0.00,0.000000,,2013-11-09 06:33:00,
2013-11-08 21:43:00,23.0,14.0,-100.00,SE,131,3.0,4.0,69,0.00,,,0.00,0.000000,,2013-11-09 06:43:00,
2013-11-08 21:54:00,23.0,14.0,-100.00,SE,131,3.0,4.0,69,0.00,,,0.00,0.000000,,2013-11-09 06:54:00,
2013-11-08 22:21:00,24.0,16.0,-100.00,SE,133,4.0,5.0,72,0.00,,,0.00,0.000000,,2013-11-09 07:21:00,
2013-11-08 22:33:00,24.0,16.0,-100.00,SE,133,4.0,5.0,72,0.00,,,0.00,0.000000,,2013-11-09 07:33:00,
2013-11-08 22:42:00,24.0,16.0,-100.00,SE,133,4.0,5.0,72,0.00,,,0.00,0.000000,,2013-11-09 07:42:00,
2013-11-08 22:52:00,24.0,16.0,-100.00,SE,133,4.0,5.0,72,0.00,,,0.00,0.000000,,2013-11-09 07:52:00,
2013-11-08 23:21:00,25.0,9.0,-100.00,SE,139,2.0,6.0,51,0.00,,,0.00,0.000000,,2013-11-09 08:21:00,
2013-11-08 23:32:00,25.0,9.0,-100.00,SE,139,2.0,6.0,51,0.00,,,0.00,0.000000,,2013-11-09 08:32:00,
2013-11-08 23:42:00,25.0,9.0,-100.00,SE,139,2.0,6.0,51,0.00,,,0.00,0.000000,,2013-11-09 08:42:00,
2013-11-08 23:52:00,25.0,9.0,-100.00,SE,139,2.0,6.0,51,0.00,,,0.00,0.000000,,2013-11-09 08:52:00,